sensor_id;sensor_type;location;lat;lon;timestamp;P1;durP1;ratioP1;P2;durP2;ratioP2
10596;SDS011;5346;48.766;8.674;2023-08-21T00:02:34;8.00;;;4.72;;
10596;SDS011;5346;48.766;8.674;2023-08-21T00:05:03;10.80;;;5.05;;
10596;SDS011;5346;48.766;8.674;2023-08-21T00:07:37;5.88;;;5.30;;
10596;SDS011;5346;48.766;8.674;2023-08-21T00:10:06;6.60;;;5.00;;
10596;SDS011;5346;48.766;8.674;2023-08-21T00:12:47;6.60;;;5.00;;
10596;SDS011;5346;48.766;8.674;2023-08-21T00:15:22;7.35;;;4.57;;
10596;SDS011;5346;48.766;8.674;2023-08-21T00:17:56;8.38;;;5.25;;
10596;SDS011;5346;48.766;8.674;2023-08-21T00:20:24;5.90;;;4.72;;
10596;SDS011;5346;48.766;8.674;2023-08-21T00:22:58;7.35;;;4.82;;
10596;SDS011;5346;48.766;8.674;2023-08-21T00:25:33;8.18;;;5.40;;
10596;SDS011;5346;48.766;8.674;2023-08-21T00:28:07;8.02;;;4.75;;
10596;SDS011;5346;48.766;8.674;2023-08-21T00:30:35;5.97;;;4.63;;
10596;SDS011;5346;48.766;8.674;2023-08-21T00:33:10;8.68;;;5.28;;
10596;SDS011;5346;48.766;8.674;2023-08-21T00:35:44;6.25;;;4.90;;
10596;SDS011;5346;48.766;8.674;2023-08-21T00:38:18;6.95;;;5.45;;
10596;SDS011;5346;48.766;8.674;2023-08-21T00:40:46;7.18;;;5.18;;
10596;SDS011;5346;48.766;8.674;2023-08-21T00:43:20;6.13;;;4.55;;
10596;SDS011;5346;48.766;8.674;2023-08-21T00:45:54;8.60;;;5.50;;
10596;SDS011;5346;48.766;8.674;2023-08-21T00:48:28;6.93;;;4.90;;
10596;SDS011;5346;48.766;8.674;2023-08-21T00:51:03;7.35;;;5.00;;
10596;SDS011;5346;48.766;8.674;2023-08-21T00:53:33;6.60;;;5.50;;
10596;SDS011;5346;48.766;8.674;2023-08-21T00:56:08;8.23;;;4.35;;
10596;SDS011;5346;48.766;8.674;2023-08-21T00:58:45;11.30;;;5.70;;
10596;SDS011;5346;48.766;8.674;2023-08-21T01:01:21;8.07;;;4.78;;
10596;SDS011;5346;48.766;8.674;2023-08-21T01:04:20;7.35;;;4.63;;
10596;SDS011;5346;48.766;8.674;2023-08-21T01:06:56;6.72;;;5.00;;
10596;SDS011;5346;48.766;8.674;2023-08-21T01:12:19;7.45;;;5.28;;
10596;SDS011;5346;48.766;8.674;2023-08-21T01:15:08;6.32;;;5.72;;
10596;SDS011;5346;48.766;8.674;2023-08-21T01:17:42;8.50;;;5.32;;
10596;SDS011;5346;48.766;8.674;2023-08-21T01:20:12;8.18;;;5.35;;
10596;SDS011;5346;48.766;8.674;2023-08-21T01:22:47;10.90;;;5.65;;
10596;SDS011;5346;48.766;8.674;2023-08-21T01:25:16;6.47;;;5.20;;
10596;SDS011;5346;48.766;8.674;2023-08-21T01:27:50;8.65;;;5.10;;
10596;SDS011;5346;48.766;8.674;2023-08-21T01:30:19;7.22;;;5.10;;
10596;SDS011;5346;48.766;8.674;2023-08-21T01:33:06;7.53;;;4.85;;
10596;SDS011;5346;48.766;8.674;2023-08-21T01:35:40;5.80;;;5.10;;
10596;SDS011;5346;48.766;8.674;2023-08-21T01:38:14;11.02;;;5.30;;
10596;SDS011;5346;48.766;8.674;2023-08-21T01:40:43;7.07;;;5.00;;
10596;SDS011;5346;48.766;8.674;2023-08-21T01:43:19;8.60;;;5.35;;
10596;SDS011;5346;48.766;8.674;2023-08-21T01:45:47;9.55;;;4.97;;
10596;SDS011;5346;48.766;8.674;2023-08-21T01:48:21;8.40;;;5.38;;
10596;SDS011;5346;48.766;8.674;2023-08-21T01:50:55;7.75;;;5.32;;
10596;SDS011;5346;48.766;8.674;2023-08-21T01:53:29;8.35;;;5.32;;
10596;SDS011;5346;48.766;8.674;2023-08-21T01:55:57;9.15;;;5.70;;
10596;SDS011;5346;48.766;8.674;2023-08-21T01:58:31;5.75;;;4.78;;
10596;SDS011;5346;48.766;8.674;2023-08-21T02:01:05;7.93;;;5.72;;
10596;SDS011;5346;48.766;8.674;2023-08-21T02:03:46;8.35;;;5.50;;
10596;SDS011;5346;48.766;8.674;2023-08-21T02:06:13;7.60;;;5.63;;
10596;SDS011;5346;48.766;8.674;2023-08-21T02:08:48;6.80;;;5.43;;
10596;SDS011;5346;48.766;8.674;2023-08-21T02:11:22;9.40;;;5.55;;
10596;SDS011;5346;48.766;8.674;2023-08-21T02:13:50;8.88;;;5.70;;
10596;SDS011;5346;48.766;8.674;2023-08-21T02:16:24;6.55;;;5.30;;
10596;SDS011;5346;48.766;8.674;2023-08-21T02:18:58;6.05;;;5.30;;
10596;SDS011;5346;48.766;8.674;2023-08-21T02:21:26;7.88;;;6.00;;
10596;SDS011;5346;48.766;8.674;2023-08-21T02:24:00;9.50;;;5.68;;
10596;SDS011;5346;48.766;8.674;2023-08-21T02:26:28;6.53;;;5.53;;
10596;SDS011;5346;48.766;8.674;2023-08-21T02:28:56;7.43;;;5.22;;
10596;SDS011;5346;48.766;8.674;2023-08-21T02:31:30;8.32;;;6.25;;
10596;SDS011;5346;48.766;8.674;2023-08-21T02:34:05;7.50;;;5.70;;
10596;SDS011;5346;48.766;8.674;2023-08-21T02:36:39;6.68;;;5.72;;
10596;SDS011;5346;48.766;8.674;2023-08-21T02:39:08;9.82;;;5.88;;
10596;SDS011;5346;48.766;8.674;2023-08-21T02:41:42;7.03;;;5.55;;
10596;SDS011;5346;48.766;8.674;2023-08-21T02:44:10;7.13;;;5.78;;
10596;SDS011;5346;48.766;8.674;2023-08-21T02:46:44;10.07;;;5.25;;
10596;SDS011;5346;48.766;8.674;2023-08-21T02:49:18;8.68;;;5.63;;
10596;SDS011;5346;48.766;8.674;2023-08-21T02:51:52;8.32;;;5.43;;
10596;SDS011;5346;48.766;8.674;2023-08-21T02:54:20;8.30;;;5.97;;
10596;SDS011;5346;48.766;8.674;2023-08-21T02:56:54;8.85;;;6.32;;
10596;SDS011;5346;48.766;8.674;2023-08-21T02:59:28;8.32;;;6.32;;
10596;SDS011;5346;48.766;8.674;2023-08-21T03:02:04;6.90;;;5.72;;
10596;SDS011;5346;48.766;8.674;2023-08-21T03:04:45;8.30;;;5.88;;
10596;SDS011;5346;48.766;8.674;2023-08-21T03:07:19;9.73;;;5.93;;
10596;SDS011;5346;48.766;8.674;2023-08-21T03:09:47;8.45;;;5.95;;
10596;SDS011;5346;48.766;8.674;2023-08-21T03:12:21;9.90;;;6.25;;
10596;SDS011;5346;48.766;8.674;2023-08-21T03:14:55;8.25;;;6.38;;
10596;SDS011;5346;48.766;8.674;2023-08-21T03:17:23;11.32;;;6.40;;
10596;SDS011;5346;48.766;8.674;2023-08-21T03:19:58;11.18;;;6.30;;
10596;SDS011;5346;48.766;8.674;2023-08-21T03:22:26;6.97;;;6.15;;
10596;SDS011;5346;48.766;8.674;2023-08-21T03:25:01;8.20;;;6.38;;
10596;SDS011;5346;48.766;8.674;2023-08-21T03:27:29;9.75;;;6.03;;
10596;SDS011;5346;48.766;8.674;2023-08-21T03:30:03;10.68;;;6.88;;
10596;SDS011;5346;48.766;8.674;2023-08-21T03:32:32;7.18;;;6.00;;
10596;SDS011;5346;48.766;8.674;2023-08-21T03:35:00;10.25;;;6.47;;
10596;SDS011;5346;48.766;8.674;2023-08-21T03:37:34;7.90;;;5.80;;
10596;SDS011;5346;48.766;8.674;2023-08-21T03:40:02;8.10;;;5.88;;
10596;SDS011;5346;48.766;8.674;2023-08-21T03:42:37;7.45;;;6.25;;
10596;SDS011;5346;48.766;8.674;2023-08-21T03:45:05;7.05;;;6.38;;
10596;SDS011;5346;48.766;8.674;2023-08-21T03:47:40;10.80;;;6.35;;
10596;SDS011;5346;48.766;8.674;2023-08-21T03:50:14;13.43;;;5.75;;
10596;SDS011;5346;48.766;8.674;2023-08-21T03:52:48;10.05;;;5.95;;
10596;SDS011;5346;48.766;8.674;2023-08-21T03:55:22;7.28;;;5.80;;
10596;SDS011;5346;48.766;8.674;2023-08-21T03:57:50;7.55;;;6.18;;
10596;SDS011;5346;48.766;8.674;2023-08-21T04:00:24;10.20;;;6.88;;
10596;SDS011;5346;48.766;8.674;2023-08-21T04:02:59;8.30;;;6.55;;
10596;SDS011;5346;48.766;8.674;2023-08-21T04:05:40;10.50;;;6.55;;
10596;SDS011;5346;48.766;8.674;2023-08-21T04:08:14;8.05;;;6.38;;
10596;SDS011;5346;48.766;8.674;2023-08-21T04:10:42;7.32;;;6.30;;
10596;SDS011;5346;48.766;8.674;2023-08-21T04:13:10;7.40;;;6.05;;
10596;SDS011;5346;48.766;8.674;2023-08-21T04:15:48;10.57;;;7.05;;
10596;SDS011;5346;48.766;8.674;2023-08-21T04:18:16;7.60;;;6.35;;
10596;SDS011;5346;48.766;8.674;2023-08-21T04:21:06;8.63;;;6.57;;
10596;SDS011;5346;48.766;8.674;2023-08-21T04:23:40;9.15;;;6.68;;
10596;SDS011;5346;48.766;8.674;2023-08-21T04:26:14;9.13;;;6.63;;
10596;SDS011;5346;48.766;8.674;2023-08-21T04:28:43;8.93;;;6.30;;
10596;SDS011;5346;48.766;8.674;2023-08-21T04:31:18;7.90;;;7.10;;
10596;SDS011;5346;48.766;8.674;2023-08-21T04:33:52;9.30;;;6.32;;
10596;SDS011;5346;48.766;8.674;2023-08-21T04:36:20;10.85;;;7.00;;
10596;SDS011;5346;48.766;8.674;2023-08-21T04:38:54;10.68;;;6.97;;
10596;SDS011;5346;48.766;8.674;2023-08-21T04:41:23;10.25;;;6.95;;
10596;SDS011;5346;48.766;8.674;2023-08-21T04:43:57;10.85;;;7.10;;
10596;SDS011;5346;48.766;8.674;2023-08-21T04:46:33;8.15;;;6.55;;
10596;SDS011;5346;48.766;8.674;2023-08-21T04:49:07;10.32;;;6.70;;
10596;SDS011;5346;48.766;8.674;2023-08-21T04:51:41;8.43;;;6.63;;
10596;SDS011;5346;48.766;8.674;2023-08-21T04:54:09;10.30;;;7.07;;
10596;SDS011;5346;48.766;8.674;2023-08-21T04:56:43;9.63;;;6.68;;
10596;SDS011;5346;48.766;8.674;2023-08-21T04:59:12;8.57;;;6.63;;
10596;SDS011;5346;48.766;8.674;2023-08-21T05:01:46;10.20;;;7.28;;
10596;SDS011;5346;48.766;8.674;2023-08-21T05:04:14;7.97;;;6.15;;
10596;SDS011;5346;48.766;8.674;2023-08-21T05:06:55;8.73;;;6.43;;
10596;SDS011;5346;48.766;8.674;2023-08-21T05:09:23;9.07;;;6.88;;
10596;SDS011;5346;48.766;8.674;2023-08-21T05:11:57;13.82;;;6.78;;
10596;SDS011;5346;48.766;8.674;2023-08-21T05:14:25;8.00;;;6.32;;
10596;SDS011;5346;48.766;8.674;2023-08-21T05:16:59;7.05;;;6.35;;
10596;SDS011;5346;48.766;8.674;2023-08-21T05:19:33;7.10;;;6.38;;
10596;SDS011;5346;48.766;8.674;2023-08-21T05:22:01;7.40;;;6.15;;
10596;SDS011;5346;48.766;8.674;2023-08-21T05:24:35;15.02;;;7.18;;
10596;SDS011;5346;48.766;8.674;2023-08-21T05:27:10;7.07;;;6.07;;
10596;SDS011;5346;48.766;8.674;2023-08-21T05:29:44;8.95;;;6.68;;
10596;SDS011;5346;48.766;8.674;2023-08-21T05:32:18;8.48;;;5.82;;
10596;SDS011;5346;48.766;8.674;2023-08-21T05:34:46;16.17;;;6.85;;
10596;SDS011;5346;48.766;8.674;2023-08-21T05:37:20;7.43;;;6.03;;
10596;SDS011;5346;48.766;8.674;2023-08-21T05:39:48;11.52;;;6.68;;
10596;SDS011;5346;48.766;8.674;2023-08-21T05:42:22;8.65;;;5.90;;
10596;SDS011;5346;48.766;8.674;2023-08-21T05:44:56;9.90;;;6.50;;
10596;SDS011;5346;48.766;8.674;2023-08-21T05:47:31;7.72;;;5.53;;
10596;SDS011;5346;48.766;8.674;2023-08-21T05:50:13;9.75;;;6.25;;
10596;SDS011;5346;48.766;8.674;2023-08-21T05:52:47;7.28;;;6.05;;
10596;SDS011;5346;48.766;8.674;2023-08-21T05:55:15;9.02;;;6.28;;
10596;SDS011;5346;48.766;8.674;2023-08-21T05:57:50;8.10;;;6.10;;
10596;SDS011;5346;48.766;8.674;2023-08-21T06:00:24;9.93;;;6.20;;
10596;SDS011;5346;48.766;8.674;2023-08-21T06:02:59;7.40;;;6.22;;
10596;SDS011;5346;48.766;8.674;2023-08-21T06:05:33;6.07;;;5.57;;
10596;SDS011;5346;48.766;8.674;2023-08-21T06:08:01;9.30;;;6.25;;
10596;SDS011;5346;48.766;8.674;2023-08-21T06:10:35;7.38;;;6.07;;
10596;SDS011;5346;48.766;8.674;2023-08-21T06:13:09;7.35;;;5.78;;
10596;SDS011;5346;48.766;8.674;2023-08-21T06:15:44;8.40;;;6.20;;
10596;SDS011;5346;48.766;8.674;2023-08-21T06:18:18;8.32;;;6.30;;
10596;SDS011;5346;48.766;8.674;2023-08-21T06:20:52;6.85;;;5.63;;
10596;SDS011;5346;48.766;8.674;2023-08-21T06:23:28;10.02;;;6.22;;
10596;SDS011;5346;48.766;8.674;2023-08-21T06:26:09;6.38;;;5.75;;
10596;SDS011;5346;48.766;8.674;2023-08-21T06:28:44;7.40;;;6.22;;
10596;SDS011;5346;48.766;8.674;2023-08-21T06:31:17;8.18;;;5.25;;
10596;SDS011;5346;48.766;8.674;2023-08-21T06:33:54;6.85;;;4.88;;
10596;SDS011;5346;48.766;8.674;2023-08-21T06:36:21;5.43;;;4.93;;
10596;SDS011;5346;48.766;8.674;2023-08-21T06:38:55;7.05;;;4.85;;
10596;SDS011;5346;48.766;8.674;2023-08-21T06:41:23;8.45;;;5.32;;
10596;SDS011;5346;48.766;8.674;2023-08-21T06:43:58;5.03;;;4.40;;
10596;SDS011;5346;48.766;8.674;2023-08-21T06:46:26;6.80;;;4.60;;
10596;SDS011;5346;48.766;8.674;2023-08-21T06:49:00;6.82;;;4.82;;
10596;SDS011;5346;48.766;8.674;2023-08-21T06:51:28;6.97;;;5.00;;
10596;SDS011;5346;48.766;8.674;2023-08-21T06:54:03;8.35;;;4.90;;
10596;SDS011;5346;48.766;8.674;2023-08-21T06:56:36;5.85;;;4.60;;
10596;SDS011;5346;48.766;8.674;2023-08-21T06:59:04;7.18;;;4.93;;
10596;SDS011;5346;48.766;8.674;2023-08-21T07:01:38;7.78;;;5.20;;
10596;SDS011;5346;48.766;8.674;2023-08-21T07:04:07;6.75;;;4.53;;
10596;SDS011;5346;48.766;8.674;2023-08-21T07:06:49;8.93;;;5.07;;
10596;SDS011;5346;48.766;8.674;2023-08-21T07:09:17;7.95;;;4.57;;
10596;SDS011;5346;48.766;8.674;2023-08-21T07:11:44;5.20;;;4.68;;
10596;SDS011;5346;48.766;8.674;2023-08-21T07:14:19;5.30;;;4.78;;
10596;SDS011;5346;48.766;8.674;2023-08-21T07:16:47;7.40;;;4.40;;
10596;SDS011;5346;48.766;8.674;2023-08-21T07:19:21;6.63;;;4.40;;
10596;SDS011;5346;48.766;8.674;2023-08-21T07:21:59;5.47;;;4.57;;
10596;SDS011;5346;48.766;8.674;2023-08-21T07:24:33;6.07;;;4.53;;
10596;SDS011;5346;48.766;8.674;2023-08-21T07:27:01;6.95;;;4.47;;
10596;SDS011;5346;48.766;8.674;2023-08-21T07:29:29;11.65;;;4.68;;
10596;SDS011;5346;48.766;8.674;2023-08-21T07:32:03;7.47;;;4.72;;
10596;SDS011;5346;48.766;8.674;2023-08-21T07:34:37;8.73;;;4.88;;
10596;SDS011;5346;48.766;8.674;2023-08-21T07:37:11;10.13;;;4.60;;
10596;SDS011;5346;48.766;8.674;2023-08-21T07:39:45;5.80;;;4.85;;
10596;SDS011;5346;48.766;8.674;2023-08-21T07:42:19;8.45;;;4.78;;
10596;SDS011;5346;48.766;8.674;2023-08-21T07:44:54;6.40;;;4.53;;
10596;SDS011;5346;48.766;8.674;2023-08-21T07:47:21;5.30;;;4.57;;
10596;SDS011;5346;48.766;8.674;2023-08-21T07:49:56;6.07;;;4.60;;
10596;SDS011;5346;48.766;8.674;2023-08-21T07:52:31;7.53;;;4.60;;
10596;SDS011;5346;48.766;8.674;2023-08-21T07:54:58;7.40;;;4.65;;
10596;SDS011;5346;48.766;8.674;2023-08-21T07:57:33;5.47;;;4.78;;
10596;SDS011;5346;48.766;8.674;2023-08-21T08:00:07;6.68;;;4.38;;
10596;SDS011;5346;48.766;8.674;2023-08-21T08:02:49;5.32;;;4.18;;
10596;SDS011;5346;48.766;8.674;2023-08-21T08:05:31;5.10;;;4.40;;
10596;SDS011;5346;48.766;8.674;2023-08-21T08:08:06;8.52;;;4.28;;
10596;SDS011;5346;48.766;8.674;2023-08-21T08:10:33;4.80;;;4.30;;
10596;SDS011;5346;48.766;8.674;2023-08-21T08:13:13;6.32;;;4.95;;
10596;SDS011;5346;48.766;8.674;2023-08-21T08:15:40;7.55;;;4.65;;
10596;SDS011;5346;48.766;8.674;2023-08-21T08:18:14;5.45;;;4.35;;
10596;SDS011;5346;48.766;8.674;2023-08-21T08:20:48;7.40;;;4.53;;
10596;SDS011;5346;48.766;8.674;2023-08-21T08:23:28;6.78;;;4.05;;
10596;SDS011;5346;48.766;8.674;2023-08-21T08:25:56;8.07;;;4.65;;
10596;SDS011;5346;48.766;8.674;2023-08-21T08:28:30;5.43;;;4.10;;
10596;SDS011;5346;48.766;8.674;2023-08-21T08:30:58;6.53;;;5.13;;
10596;SDS011;5346;48.766;8.674;2023-08-21T08:33:32;6.30;;;5.00;;
10596;SDS011;5346;48.766;8.674;2023-08-21T08:36:06;6.72;;;4.80;;
10596;SDS011;5346;48.766;8.674;2023-08-21T08:38:40;6.10;;;4.40;;
10596;SDS011;5346;48.766;8.674;2023-08-21T08:44:03;7.38;;;4.57;;
10596;SDS011;5346;48.766;8.674;2023-08-21T08:46:32;5.47;;;4.47;;
10596;SDS011;5346;48.766;8.674;2023-08-21T08:49:07;10.10;;;4.90;;
10596;SDS011;5346;48.766;8.674;2023-08-21T08:51:35;5.55;;;4.18;;
10596;SDS011;5346;48.766;8.674;2023-08-21T08:54:12;7.45;;;4.78;;
10596;SDS011;5346;48.766;8.674;2023-08-21T08:56:40;5.72;;;4.90;;
10596;SDS011;5346;48.766;8.674;2023-08-21T08:59:08;11.23;;;4.97;;
10596;SDS011;5346;48.766;8.674;2023-08-21T09:01:42;11.93;;;5.65;;
10596;SDS011;5346;48.766;8.674;2023-08-21T09:04:10;5.30;;;4.43;;
10596;SDS011;5346;48.766;8.674;2023-08-21T09:06:52;7.05;;;4.85;;
10596;SDS011;5346;48.766;8.674;2023-08-21T09:09:38;9.75;;;5.65;;
10596;SDS011;5346;48.766;8.674;2023-08-21T09:12:14;8.73;;;4.63;;
10596;SDS011;5346;48.766;8.674;2023-08-21T09:14:42;13.30;;;4.93;;
10596;SDS011;5346;48.766;8.674;2023-08-21T09:17:17;7.05;;;4.85;;
10596;SDS011;5346;48.766;8.674;2023-08-21T09:19:51;7.55;;;4.63;;
10596;SDS011;5346;48.766;8.674;2023-08-21T09:22:27;10.43;;;4.90;;
10596;SDS011;5346;48.766;8.674;2023-08-21T09:25:04;8.20;;;5.10;;
10596;SDS011;5346;48.766;8.674;2023-08-21T09:27:39;5.30;;;4.60;;
10596;SDS011;5346;48.766;8.674;2023-08-21T09:30:08;10.05;;;5.20;;
10596;SDS011;5346;48.766;8.674;2023-08-21T09:32:57;10.88;;;4.82;;
10596;SDS011;5346;48.766;8.674;2023-08-21T09:35:32;5.10;;;4.60;;
10596;SDS011;5346;48.766;8.674;2023-08-21T09:38:07;7.50;;;4.72;;
10596;SDS011;5346;48.766;8.674;2023-08-21T09:40:43;5.57;;;5.07;;
10596;SDS011;5346;48.766;8.674;2023-08-21T09:43:28;6.50;;;5.20;;
10596;SDS011;5346;48.766;8.674;2023-08-21T09:46:02;9.57;;;5.20;;
10596;SDS011;5346;48.766;8.674;2023-08-21T09:48:37;7.43;;;5.10;;
10596;SDS011;5346;48.766;8.674;2023-08-21T09:51:07;5.93;;;4.50;;
10596;SDS011;5346;48.766;8.674;2023-08-21T09:53:41;9.00;;;5.22;;
10596;SDS011;5346;48.766;8.674;2023-08-21T09:56:17;6.68;;;4.53;;
10596;SDS011;5346;48.766;8.674;2023-08-21T09:58:52;9.75;;;4.93;;
10596;SDS011;5346;48.766;8.674;2023-08-21T10:01:26;6.38;;;5.13;;
10596;SDS011;5346;48.766;8.674;2023-08-21T10:03:55;6.93;;;5.22;;
10596;SDS011;5346;48.766;8.674;2023-08-21T10:06:47;8.38;;;4.90;;
10596;SDS011;5346;48.766;8.674;2023-08-21T10:09:16;6.22;;;5.50;;
10596;SDS011;5346;48.766;8.674;2023-08-21T10:11:52;9.55;;;5.30;;
10596;SDS011;5346;48.766;8.674;2023-08-21T10:14:21;7.25;;;4.90;;
10596;SDS011;5346;48.766;8.674;2023-08-21T10:16:57;10.40;;;5.32;;
10596;SDS011;5346;48.766;8.674;2023-08-21T10:19:30;8.30;;;5.70;;
10596;SDS011;5346;48.766;8.674;2023-08-21T10:22:05;7.00;;;4.85;;
10596;SDS011;5346;48.766;8.674;2023-08-21T10:24:40;11.55;;;4.90;;
10596;SDS011;5346;48.766;8.674;2023-08-21T10:27:15;9.50;;;5.40;;
10596;SDS011;5346;48.766;8.674;2023-08-21T10:29:57;11.00;;;5.25;;
10596;SDS011;5346;48.766;8.674;2023-08-21T10:32:31;7.45;;;5.40;;
10596;SDS011;5346;48.766;8.674;2023-08-21T10:34:59;6.28;;;4.97;;
10596;SDS011;5346;48.766;8.674;2023-08-21T10:37:34;10.00;;;5.15;;
10596;SDS011;5346;48.766;8.674;2023-08-21T10:40:22;6.35;;;5.03;;
10596;SDS011;5346;48.766;8.674;2023-08-21T10:42:59;6.60;;;5.25;;
10596;SDS011;5346;48.766;8.674;2023-08-21T10:45:41;10.18;;;4.90;;
10596;SDS011;5346;48.766;8.674;2023-08-21T10:48:28;8.38;;;5.15;;
10596;SDS011;5346;48.766;8.674;2023-08-21T10:50:56;9.35;;;5.20;;
10596;SDS011;5346;48.766;8.674;2023-08-21T10:53:36;10.10;;;4.85;;
10596;SDS011;5346;48.766;8.674;2023-08-21T10:56:05;6.57;;;5.20;;
10596;SDS011;5346;48.766;8.674;2023-08-21T10:58:44;7.00;;;5.20;;
10596;SDS011;5346;48.766;8.674;2023-08-21T11:01:17;6.15;;;5.55;;
10596;SDS011;5346;48.766;8.674;2023-08-21T11:03:51;11.43;;;5.68;;
10596;SDS011;5346;48.766;8.674;2023-08-21T11:06:38;8.73;;;5.47;;
10596;SDS011;5346;48.766;8.674;2023-08-21T11:09:13;7.40;;;5.07;;
10596;SDS011;5346;48.766;8.674;2023-08-21T11:11:49;6.28;;;5.20;;
10596;SDS011;5346;48.766;8.674;2023-08-21T11:14:26;5.60;;;5.10;;
10596;SDS011;5346;48.766;8.674;2023-08-21T11:17:00;10.13;;;5.68;;
10596;SDS011;5346;48.766;8.674;2023-08-21T11:19:31;7.53;;;5.03;;
10596;SDS011;5346;48.766;8.674;2023-08-21T11:22:07;9.07;;;5.18;;
10596;SDS011;5346;48.766;8.674;2023-08-21T11:24:42;6.30;;;5.32;;
10596;SDS011;5346;48.766;8.674;2023-08-21T11:27:17;6.03;;;5.43;;
10596;SDS011;5346;48.766;8.674;2023-08-21T11:29:51;9.77;;;5.47;;
10596;SDS011;5346;48.766;8.674;2023-08-21T11:32:21;8.57;;;5.10;;
10596;SDS011;5346;48.766;8.674;2023-08-21T11:34:57;9.35;;;5.35;;
10596;SDS011;5346;48.766;8.674;2023-08-21T11:37:31;9.10;;;5.15;;
10596;SDS011;5346;48.766;8.674;2023-08-21T11:39:59;5.90;;;5.20;;
10596;SDS011;5346;48.766;8.674;2023-08-21T11:42:40;8.95;;;5.70;;
10596;SDS011;5346;48.766;8.674;2023-08-21T11:45:08;10.73;;;5.13;;
10596;SDS011;5346;48.766;8.674;2023-08-21T11:47:44;6.32;;;5.72;;
10596;SDS011;5346;48.766;8.674;2023-08-21T11:50:14;9.35;;;5.10;;
10596;SDS011;5346;48.766;8.674;2023-08-21T11:52:54;7.13;;;5.63;;
10596;SDS011;5346;48.766;8.674;2023-08-21T11:55:29;9.30;;;5.50;;
10596;SDS011;5346;48.766;8.674;2023-08-21T11:58:04;7.00;;;5.05;;
10596;SDS011;5346;48.766;8.674;2023-08-21T12:00:39;8.07;;;5.35;;
10596;SDS011;5346;48.766;8.674;2023-08-21T12:03:07;7.93;;;5.20;;
10596;SDS011;5346;48.766;8.674;2023-08-21T12:05:43;14.30;;;5.85;;
10596;SDS011;5346;48.766;8.674;2023-08-21T12:08:25;6.75;;;5.18;;
10596;SDS011;5346;48.766;8.674;2023-08-21T12:10:59;7.28;;;4.93;;
10596;SDS011;5346;48.766;8.674;2023-08-21T12:13:27;6.68;;;5.50;;
10596;SDS011;5346;48.766;8.674;2023-08-21T12:16:02;9.75;;;5.25;;
10596;SDS011;5346;48.766;8.674;2023-08-21T12:18:37;7.82;;;5.57;;
10596;SDS011;5346;48.766;8.674;2023-08-21T12:21:11;6.93;;;5.03;;
10596;SDS011;5346;48.766;8.674;2023-08-21T12:23:39;10.70;;;5.50;;
10596;SDS011;5346;48.766;8.674;2023-08-21T12:26:13;6.57;;;5.30;;
10596;SDS011;5346;48.766;8.674;2023-08-21T12:28:48;8.20;;;5.10;;
10596;SDS011;5346;48.766;8.674;2023-08-21T12:31:22;12.25;;;5.68;;
10596;SDS011;5346;48.766;8.674;2023-08-21T12:33:50;7.80;;;5.20;;
10596;SDS011;5346;48.766;8.674;2023-08-21T12:36:24;12.00;;;5.63;;
10596;SDS011;5346;48.766;8.674;2023-08-21T12:38:58;9.68;;;5.45;;
10596;SDS011;5346;48.766;8.674;2023-08-21T12:41:33;7.45;;;5.15;;
10596;SDS011;5346;48.766;8.674;2023-08-21T12:44:01;6.65;;;5.22;;
10596;SDS011;5346;48.766;8.674;2023-08-21T12:46:36;7.95;;;5.18;;
10596;SDS011;5346;48.766;8.674;2023-08-21T12:49:04;8.55;;;5.70;;
10596;SDS011;5346;48.766;8.674;2023-08-21T12:51:39;10.05;;;5.68;;
10596;SDS011;5346;48.766;8.674;2023-08-21T12:54:07;9.40;;;6.30;;
10596;SDS011;5346;48.766;8.674;2023-08-21T12:56:35;7.00;;;5.85;;
10596;SDS011;5346;48.766;8.674;2023-08-21T12:59:10;9.15;;;5.32;;
10596;SDS011;5346;48.766;8.674;2023-08-21T13:01:42;7.28;;;5.13;;
10596;SDS011;5346;48.766;8.674;2023-08-21T13:04:23;6.85;;;5.30;;
10596;SDS011;5346;48.766;8.674;2023-08-21T13:07:05;9.02;;;5.35;;
10596;SDS011;5346;48.766;8.674;2023-08-21T13:09:33;10.65;;;6.20;;
10596;SDS011;5346;48.766;8.674;2023-08-21T13:12:08;8.07;;;5.65;;
10596;SDS011;5346;48.766;8.674;2023-08-21T13:14:36;10.10;;;5.70;;
10596;SDS011;5346;48.766;8.674;2023-08-21T13:17:12;11.50;;;6.00;;
10596;SDS011;5346;48.766;8.674;2023-08-21T13:19:40;9.60;;;5.65;;
10596;SDS011;5346;48.766;8.674;2023-08-21T13:22:15;8.60;;;5.65;;
10596;SDS011;5346;48.766;8.674;2023-08-21T13:24:44;11.68;;;5.72;;
10596;SDS011;5346;48.766;8.674;2023-08-21T13:27:11;7.10;;;6.35;;
10596;SDS011;5346;48.766;8.674;2023-08-21T13:29:45;8.23;;;6.25;;
10596;SDS011;5346;48.766;8.674;2023-08-21T13:32:13;7.38;;;6.05;;
10596;SDS011;5346;48.766;8.674;2023-08-21T13:34:41;9.82;;;5.40;;
10596;SDS011;5346;48.766;8.674;2023-08-21T13:37:26;8.90;;;5.72;;
10596;SDS011;5346;48.766;8.674;2023-08-21T13:39:54;6.82;;;6.13;;
10596;SDS011;5346;48.766;8.674;2023-08-21T13:42:32;7.90;;;5.80;;
10596;SDS011;5346;48.766;8.674;2023-08-21T13:45:11;7.07;;;5.38;;
10596;SDS011;5346;48.766;8.674;2023-08-21T13:47:49;8.18;;;5.72;;
10596;SDS011;5346;48.766;8.674;2023-08-21T13:50:17;9.77;;;6.05;;
10596;SDS011;5346;48.766;8.674;2023-08-21T13:52:52;6.65;;;5.38;;
10596;SDS011;5346;48.766;8.674;2023-08-21T13:55:26;11.27;;;6.15;;
10596;SDS011;5346;48.766;8.674;2023-08-21T13:58:01;7.00;;;6.22;;
10596;SDS011;5346;48.766;8.674;2023-08-21T14:00:29;6.90;;;5.75;;
10596;SDS011;5346;48.766;8.674;2023-08-21T14:02:57;8.95;;;6.13;;
10596;SDS011;5346;48.766;8.674;2023-08-21T14:05:39;10.10;;;6.05;;
10596;SDS011;5346;48.766;8.674;2023-08-21T14:08:14;10.35;;;6.00;;
10596;SDS011;5346;48.766;8.674;2023-08-21T14:10:48;15.30;;;6.25;;
10596;SDS011;5346;48.766;8.674;2023-08-21T14:13:16;8.40;;;5.68;;
10596;SDS011;5346;48.766;8.674;2023-08-21T14:15:50;7.85;;;5.45;;
10596;SDS011;5346;48.766;8.674;2023-08-21T14:18:18;7.05;;;5.45;;
10596;SDS011;5346;48.766;8.674;2023-08-21T14:20:52;12.40;;;6.63;;
10596;SDS011;5346;48.766;8.674;2023-08-21T14:23:20;11.45;;;6.13;;
10596;SDS011;5346;48.766;8.674;2023-08-21T14:25:58;7.80;;;5.28;;
10596;SDS011;5346;48.766;8.674;2023-08-21T14:28:26;8.65;;;6.22;;
10596;SDS011;5346;48.766;8.674;2023-08-21T14:31:00;8.57;;;5.95;;
10596;SDS011;5346;48.766;8.674;2023-08-21T14:33:28;9.40;;;5.45;;
10596;SDS011;5346;48.766;8.674;2023-08-21T14:36:02;10.45;;;6.07;;
10596;SDS011;5346;48.766;8.674;2023-08-21T14:38:30;7.07;;;6.00;;
10596;SDS011;5346;48.766;8.674;2023-08-21T14:41:04;7.15;;;5.72;;
10596;SDS011;5346;48.766;8.674;2023-08-21T14:43:38;7.38;;;5.93;;
10596;SDS011;5346;48.766;8.674;2023-08-21T14:46:13;13.20;;;5.65;;
10596;SDS011;5346;48.766;8.674;2023-08-21T14:49:00;19.30;;;7.05;;
10596;SDS011;5346;48.766;8.674;2023-08-21T14:51:34;7.22;;;6.07;;
10596;SDS011;5346;48.766;8.674;2023-08-21T14:54:08;10.73;;;6.15;;
10596;SDS011;5346;48.766;8.674;2023-08-21T14:56:36;7.72;;;6.05;;
10596;SDS011;5346;48.766;8.674;2023-08-21T14:59:10;11.77;;;5.32;;
10596;SDS011;5346;48.766;8.674;2023-08-21T15:01:44;8.23;;;5.80;;
10596;SDS011;5346;48.766;8.674;2023-08-21T15:04:18;11.43;;;5.82;;
10596;SDS011;5346;48.766;8.674;2023-08-21T15:06:52;11.73;;;6.22;;
10596;SDS011;5346;48.766;8.674;2023-08-21T15:09:33;5.95;;;5.43;;
10596;SDS011;5346;48.766;8.674;2023-08-21T15:12:08;6.72;;;5.40;;
10596;SDS011;5346;48.766;8.674;2023-08-21T15:14:42;6.30;;;5.32;;
10596;SDS011;5346;48.766;8.674;2023-08-21T15:17:17;7.63;;;5.68;;
10596;SDS011;5346;48.766;8.674;2023-08-21T15:19:47;8.05;;;5.63;;
10596;SDS011;5346;48.766;8.674;2023-08-21T15:22:27;9.73;;;5.95;;
10596;SDS011;5346;48.766;8.674;2023-08-21T15:25:01;6.85;;;5.35;;
10596;SDS011;5346;48.766;8.674;2023-08-21T15:27:36;8.15;;;5.68;;
10596;SDS011;5346;48.766;8.674;2023-08-21T15:30:10;7.75;;;5.85;;
10596;SDS011;5346;48.766;8.674;2023-08-21T15:32:44;7.72;;;5.80;;
10596;SDS011;5346;48.766;8.674;2023-08-21T15:35:14;10.32;;;5.88;;
10596;SDS011;5346;48.766;8.674;2023-08-21T15:37:49;8.43;;;5.57;;
10596;SDS011;5346;48.766;8.674;2023-08-21T15:40:23;8.10;;;5.45;;
10596;SDS011;5346;48.766;8.674;2023-08-21T15:42:58;7.45;;;5.20;;